Time;durP1;ratioP1;P1;durP2;ratioP2;P2;SDS_P1;SDS_P2;PMS_P1;PMS_P2;Temp;Humidity;BMP_temperature;BMP_pressure;BME280_temperature;BME280_humidity;BME280_pressure;Samples;Min_cycle;Max_cycle;Signal;HPM_P1;HPM_P2
2023/09/04 00:00:56;;;;;;;3.78;1.90;;;;;;;;;;5056147;28;20033;-80
2023/09/04 00:03:22;;;;;;;5.70;2.10;;;;;;;;;;5073438;28;20020;-80
2023/09/04 00:05:48;;;;;;;3.33;2.00;;;;;;;;;;5073759;28;20032;-80
2023/09/04 00:08:14;;;;;;;3.35;1.70;;;;;;;;;;5074796;28;20464;-81
2023/09/04 00:10:40;;;;;;;1.98;1.50;;;;;;;;;;5056079;28;20032;-79
2023/09/04 00:13:05;;;;;;;2.90;2.25;;;;;;;;;;5054815;28;20035;-80
2023/09/04 00:15:31;;;;;;;2.42;1.85;;;;;;;;;;5054954;28;20035;-80
2023/09/04 00:17:56;;;;;;;3.80;1.98;;;;;;;;;;5054995;28;20094;-80
2023/09/04 00:20:24;;;;;;;18.50;2.78;;;;;;;;;;5055482;28;20052;-81
2023/09/04 00:22:50;;;;;;;2.33;2.05;;;;;;;;;;5055188;28;20052;-80
2023/09/04 00:25:16;;;;;;;3.92;1.90;;;;;;;;;;5054902;28;20040;-80
2023/09/04 00:27:42;;;;;;;2.35;1.83;;;;;;;;;;5073030;28;20111;-79
2023/09/04 00:30:08;;;;;;;2.42;2.03;;;;;;;;;;5073064;28;20090;-79
2023/09/04 00:32:33;;;;;;;4.05;1.95;;;;;;;;;;5072594;28;20437;-80
2023/09/04 00:34:59;;;;;;;4.97;1.80;;;;;;;;;;5054905;28;20048;-80
2023/09/04 00:37:24;;;;;;;3.95;2.30;;;;;;;;;;5054465;28;20042;-80
2023/09/04 00:39:51;;;;;;;2.00;1.75;;;;;;;;;;5054827;28;20035;-80
2023/09/04 00:42:17;;;;;;;2.83;1.92;;;;;;;;;;5054158;28;20024;-79
2023/09/04 00:44:49;;;;;;;3.90;2.17;;;;;;;;;;5072931;28;20151;-81
2023/09/04 00:47:17;;;;;;;2.72;2.03;;;;;;;;;;5054930;28;20392;-80
2023/09/04 00:49:45;;;;;;;3.90;2.13;;;;;;;;;;5073293;28;20101;-80
2023/09/04 00:52:11;;;;;;;2.53;2.00;;;;;;;;;;5073003;28;20099;-79
2023/09/04 00:54:38;;;;;;;3.83;2.55;;;;;;;;;;5054415;28;20029;-79
2023/09/04 00:57:05;;;;;;;3.03;2.17;;;;;;;;;;5072681;28;20078;-80
2023/09/04 00:59:31;;;;;;;2.67;1.98;;;;;;;;;;5072496;28;20021;-81
2023/09/04 01:02:00;;;;;;;3.05;2.08;;;;;;;;;;5054811;28;20522;-80
2023/09/04 01:04:26;;;;;;;3.95;2.28;;;;;;;;;;5072518;28;20044;-82
2023/09/04 01:06:53;;;;;;;5.93;2.80;;;;;;;;;;5054639;28;20064;-81
2023/09/04 01:09:20;;;;;;;4.75;2.65;;;;;;;;;;5055473;28;20440;-80
2023/09/04 01:11:55;;;;;;;3.40;2.55;;;;;;;;;;5058893;28;20023;-81
2023/09/04 01:14:23;;;;;;;6.18;2.47;;;;;;;;;;5058648;28;20047;-80
2023/09/04 01:16:49;;;;;;;5.28;2.22;;;;;;;;;;5041485;28;20418;-79
2023/09/04 01:19:17;;;;;;;7.80;2.20;;;;;;;;;;5058616;28;20021;-80
2023/09/04 01:21:43;;;;;;;2.50;1.83;;;;;;;;;;5057541;28;20024;-80
2023/09/04 01:24:09;;;;;;;5.30;2.58;;;;;;;;;;5057748;28;20024;-80
2023/09/04 01:26:43;;;;;;;2.15;1.95;;;;;;;;;;5058081;28;20022;-80
2023/09/04 01:29:28;;;;;;;4.72;2.33;;;;;;;;;;5076496;28;20020;-80
2023/09/04 01:32:10;;;;;;;6.50;2.65;;;;;;;;;;5058179;28;20020;-79
2023/09/04 01:34:48;;;;;;;;;;;;;;;;;;5058120;28;20020;-79
2023/09/04 01:37:15;;;;;;;4.40;2.30;;;;;;;;;;5057058;28;20041;-82
2023/09/04 01:39:43;;;;;;;3.30;2.33;;;;;;;;;;5075763;28;20029;-81
2023/09/04 01:42:08;;;;;;;3.00;2.53;;;;;;;;;;5057693;28;20085;-80
2023/09/04 01:44:34;;;;;;;4.78;2.58;;;;;;;;;;5075951;28;20025;-80
2023/09/04 01:47:00;;;;;;;6.25;2.35;;;;;;;;;;5056795;28;20111;-80
2023/09/04 01:49:25;;;;;;;5.25;3.10;;;;;;;;;;5056981;28;20030;-81
2023/09/04 01:51:58;;;;;;;7.93;3.30;;;;;;;;;;5075470;28;20105;-80
2023/09/04 01:54:23;;;;;;;5.53;2.80;;;;;;;;;;5075128;28;20024;-81
2023/09/04 01:56:49;;;;;;;4.30;3.25;;;;;;;;;;5057389;28;20116;-80
2023/09/04 01:59:15;;;;;;;3.42;2.45;;;;;;;;;;5040108;28;20201;-79
2023/09/04 02:01:40;;;;;;;3.08;2.75;;;;;;;;;;5057355;28;20032;-78
2023/09/04 02:04:06;;;;;;;3.95;2.90;;;;;;;;;;5056973;28;20372;-79
2023/09/04 02:06:32;;;;;;;3.35;3.05;;;;;;;;;;5075286;28;20496;-80
2023/09/04 02:08:57;;;;;;;4.53;2.70;;;;;;;;;;5057473;28;20028;-79
2023/09/04 02:11:25;;;;;;;5.30;2.78;;;;;;;;;;5057218;28;20558;-79
2023/09/04 02:13:50;;;;;;;3.33;2.88;;;;;;;;;;5057497;28;20485;-80
2023/09/04 02:16:16;;;;;;;7.07;3.22;;;;;;;;;;5074716;28;20031;-80
2023/09/04 02:18:42;;;;;;;4.47;2.97;;;;;;;;;;5075035;28;20052;-80
2023/09/04 02:21:09;;;;;;;6.05;3.33;;;;;;;;;;5055343;28;20043;-80
2023/09/04 02:23:34;;;;;;;3.92;3.20;;;;;;;;;;5074919;28;20495;-80
2023/09/04 02:26:00;;;;;;;6.78;3.35;;;;;;;;;;5075205;28;20048;-81
2023/09/04 02:28:25;;;;;;;5.53;3.20;;;;;;;;;;5056814;28;20028;-80
2023/09/04 02:30:51;;;;;;;6.00;3.42;;;;;;;;;;5074858;28;20107;-80
2023/09/04 02:33:17;;;;;;;4.97;2.63;;;;;;;;;;5056628;28;20039;-80
2023/09/04 02:35:42;;;;;;;6.82;2.88;;;;;;;;;;5056852;28;20088;-80
2023/09/04 02:38:08;;;;;;;12.20;3.22;;;;;;;;;;5074590;28;20036;-79
2023/09/04 02:40:34;;;;;;;5.32;3.13;;;;;;;;;;5057085;28;20032;-81
2023/09/04 02:42:59;;;;;;;3.47;3.15;;;;;;;;;;5056369;28;20051;-79
2023/09/04 02:45:25;;;;;;;7.65;3.80;;;;;;;;;;5074793;28;20479;-80
2023/09/04 02:47:51;;;;;;;4.22;2.88;;;;;;;;;;5074586;28;20032;-80
2023/09/04 02:50:17;;;;;;;5.05;3.10;;;;;;;;;;5056261;28;20032;-80
2023/09/04 02:52:44;;;;;;;5.57;3.53;;;;;;;;;;5056385;28;20044;-80
2023/09/04 02:55:09;;;;;;;7.20;3.50;;;;;;;;;;5056240;28;20025;-80
2023/09/04 02:57:35;;;;;;;5.43;3.30;;;;;;;;;;5074452;28;20032;-79
2023/09/04 03:00:05;;;;;;;5.70;3.08;;;;;;;;;;5056253;28;20115;-81
2023/09/04 03:02:31;;;;;;;3.40;2.88;;;;;;;;;;5055146;28;20062;-79
2023/09/04 03:04:57;;;;;;;3.85;2.63;;;;;;;;;;5056475;28;20032;-79
2023/09/04 03:07:26;;;;;;;4.70;3.05;;;;;;;;;;5055570;28;20456;-82
2023/09/04 03:09:59;;;;;;;7.25;2.47;;;;;;;;;;5056310;28;20470;-80
2023/09/04 03:12:32;;;;;;;6.20;4.53;;;;;;;;;;5075742;28;20059;-80
2023/09/04 03:15:00;;;;;;;5.10;3.33;;;;;;;;;;5040487;28;20507;-81
2023/09/04 03:17:27;;;;;;;3.92;3.38;;;;;;;;;;5075138;28;20024;-80
2023/09/04 03:19:53;;;;;;;7.35;3.28;;;;;;;;;;5039917;28;20039;-80
2023/09/04 03:22:20;;;;;;;5.13;3.58;;;;;;;;;;5057392;28;20063;-80
2023/09/04 03:24:46;;;;;;;5.10;3.13;;;;;;;;;;5057247;28;20056;-80
2023/09/04 03:27:11;;;;;;;3.67;3.00;;;;;;;;;;5055998;28;20508;-80
2023/09/04 03:29:37;;;;;;;7.40;3.60;;;;;;;;;;5075622;28;20035;-80
2023/09/04 03:32:03;;;;;;;5.97;3.75;;;;;;;;;;5055555;28;20028;-82
2023/09/04 03:34:29;;;;;;;6.88;3.30;;;;;;;;;;5056050;28;20017;-79
2023/09/04 03:36:55;;;;;;;4.28;3.13;;;;;;;;;;5055793;28;20480;-82
2023/09/04 03:39:21;;;;;;;4.13;3.30;;;;;;;;;;5039129;28;20039;-81
2023/09/04 03:41:47;;;;;;;4.03;3.15;;;;;;;;;;5055591;28;20044;-80
2023/09/04 03:44:14;;;;;;;5.00;3.40;;;;;;;;;;5073899;28;20024;-80
2023/09/04 03:46:41;;;;;;;6.65;3.15;;;;;;;;;;5055813;28;20039;-80
2023/09/04 03:49:07;;;;;;;7.45;3.30;;;;;;;;;;5056142;28;20024;-80
2023/09/04 03:51:33;;;;;;;6.13;3.28;;;;;;;;;;5056061;28;20024;-81
2023/09/04 03:54:02;;;;;;;8.68;3.78;;;;;;;;;;5057128;28;20074;-79
2023/09/04 03:56:31;;;;;;;9.10;4.43;;;;;;;;;;5056380;28;20032;-79
2023/09/04 03:58:57;;;;;;;14.90;11.60;;;;;;;;;;5074329;28;20405;-81
2023/09/04 04:01:23;;;;;;;12.05;4.25;;;;;;;;;;5055546;28;20032;-80
2023/09/04 04:03:50;;;;;;;5.72;3.47;;;;;;;;;;5056568;28;20455;-82
2023/09/04 04:06:15;;;;;;;5.05;3.55;;;;;;;;;;5055567;28;20059;-80
2023/09/04 04:08:41;;;;;;;8.63;4.20;;;;;;;;;;5057381;28;20031;-81
2023/09/04 04:11:07;;;;;;;5.05;4.05;;;;;;;;;;5056802;28;20051;-79
2023/09/04 04:13:33;;;;;;;6.82;3.80;;;;;;;;;;5074709;28;20048;-81
2023/09/04 04:15:59;;;;;;;8.30;4.22;;;;;;;;;;5074932;28;20048;-80
2023/09/04 04:18:27;;;;;;;5.80;3.80;;;;;;;;;;5073910;28;20025;-81
2023/09/04 04:20:53;;;;;;;14.50;5.90;;;;;;;;;;5055948;28;20035;-80
2023/09/04 04:23:19;;;;;;;6.32;3.80;;;;;;;;;;5073839;28;20449;-81
2023/09/04 04:25:44;;;;;;;13.23;3.85;;;;;;;;;;5073097;28;20045;-79
2023/09/04 04:28:11;;;;;;;5.13;4.63;;;;;;;;;;5056104;28;20195;-80
2023/09/04 04:30:37;;;;;;;10.80;4.80;;;;;;;;;;5055915;28;20461;-79
2023/09/04 04:33:03;;;;;;;4.63;3.92;;;;;;;;;;5055565;28;20036;-79
2023/09/04 04:35:28;;;;;;;8.13;4.72;;;;;;;;;;5055659;28;20028;-80
2023/09/04 04:37:55;;;;;;;9.45;4.57;;;;;;;;;;5056248;28;20035;-80
2023/09/04 04:40:26;;;;;;;5.07;3.95;;;;;;;;;;5056156;28;20396;-82
2023/09/04 04:42:51;;;;;;;5.18;3.75;;;;;;;;;;5055043;28;20037;-81
2023/09/04 04:45:17;;;;;;;4.55;3.53;;;;;;;;;;5076549;28;20035;-80
2023/09/04 04:47:43;;;;;;;6.65;4.47;;;;;;;;;;5043870;28;20028;-79
2023/09/04 04:50:09;;;;;;;6.00;3.95;;;;;;;;;;5060238;28;20024;-79
2023/09/04 04:52:35;;;;;;;8.55;5.10;;;;;;;;;;5077975;28;20036;-81
2023/09/04 04:55:01;;;;;;;8.15;3.85;;;;;;;;;;5077559;28;20123;-79
2023/09/04 04:57:26;;;;;;;7.05;4.10;;;;;;;;;;5059634;28;20052;-80
2023/09/04 04:59:52;;;;;;;6.20;4.13;;;;;;;;;;5059960;28;20063;-83
2023/09/04 05:02:17;;;;;;;7.05;4.82;;;;;;;;;;5058905;28;20495;-81
2023/09/04 05:04:47;;;;;;;30.48;7.65;;;;;;;;;;5077308;28;20028;-80
2023/09/04 05:07:14;;;;;;;6.75;4.60;;;;;;;;;;5043024;28;20066;-80
2023/09/04 05:09:40;;;;;;;13.13;4.93;;;;;;;;;;5077235;28;20044;-80
2023/09/04 05:12:07;;;;;;;5.63;5.05;;;;;;;;;;5059061;28;20024;-81
2023/09/04 05:14:33;;;;;;;36.53;10.50;;;;;;;;;;5058705;28;20024;-80
2023/09/04 05:17:00;;;;;;;8.18;5.13;;;;;;;;;;5058878;28;20119;-81
2023/09/04 05:19:25;;;;;;;9.45;4.18;;;;;;;;;;5076135;28;20103;-81
2023/09/04 05:21:51;;;;;;;11.60;5.20;;;;;;;;;;5058093;28;20565;-80
2023/09/04 05:24:17;;;;;;;12.23;5.13;;;;;;;;;;5058712;28;20044;-81
2023/09/04 05:26:42;;;;;;;12.73;6.13;;;;;;;;;;5059370;28;20040;-81
2023/09/04 05:29:08;;;;;;;13.52;6.07;;;;;;;;;;5059521;28;20039;-81
2023/09/04 05:31:33;;;;;;;7.60;4.32;;;;;;;;;;5063605;28;20119;-80
2023/09/04 05:34:02;;;;;;;11.10;4.70;;;;;;;;;;5060977;28;20124;-80
2023/09/04 05:36:28;;;;;;;6.22;4.20;;;;;;;;;;5070971;28;20040;-80
2023/09/04 05:38:54;;;;;;;8.95;5.63;;;;;;;;;;5049958;28;20025;-80
2023/09/04 05:41:20;;;;;;;7.15;5.32;;;;;;;;;;5059298;28;20484;-80
2023/09/04 05:43:45;;;;;;;7.28;4.53;;;;;;;;;;5052587;28;20020;-81
2023/09/04 05:46:11;;;;;;;6.00;4.57;;;;;;;;;;5057973;28;20032;-81
2023/09/04 05:48:36;;;;;;;5.50;4.70;;;;;;;;;;5058577;28;20043;-80
2023/09/04 05:51:02;;;;;;;6.40;4.55;;;;;;;;;;5051328;28;20044;-82
2023/09/04 05:53:29;;;;;;;25.05;23.48;;;;;;;;;;5057950;28;20028;-79
2023/09/04 05:56:10;;;;;;;5.95;4.70;;;;;;;;;;5050519;28;20369;-82
2023/09/04 05:58:56;;;;;;;6.57;4.63;;;;;;;;;;5043748;28;20048;-81
2023/09/04 06:01:24;;;;;;;6.60;4.15;;;;;;;;;;5061301;28;20068;-82
2023/09/04 06:03:49;;;;;;;9.68;4.00;;;;;;;;;;5058836;28;20017;-81
2023/09/04 06:06:15;;;;;;;5.10;4.38;;;;;;;;;;5076115;28;20040;-80
2023/09/04 06:08:41;;;;;;;9.18;5.68;;;;;;;;;;5059128;28;20048;-80
2023/09/04 06:11:07;;;;;;;7.28;4.20;;;;;;;;;;5045409;28;20039;-80
2023/09/04 06:13:33;;;;;;;6.30;4.57;;;;;;;;;;5075351;28;20107;-80
2023/09/04 06:15:59;;;;;;;8.95;5.20;;;;;;;;;;5031073;28;20418;-81
2023/09/04 06:18:29;;;;;;;9.57;4.47;;;;;;;;;;5050789;28;20017;-82
2023/09/04 06:20:58;;;;;;;5.72;4.45;;;;;;;;;;5042421;28;20024;-81
2023/09/04 06:23:23;;;;;;;7.60;4.45;;;;;;;;;;5047883;28;20036;-83
2023/09/04 06:25:49;;;;;;;7.93;4.50;;;;;;;;;;5076487;28;20135;-81
2023/09/04 06:28:16;;;;;;;5.70;4.03;;;;;;;;;;5033721;28;20033;-81
2023/09/04 06:30:41;;;;;;;9.27;4.95;;;;;;;;;;5076583;28;20423;-80
2023/09/04 06:33:07;;;;;;;8.80;4.22;;;;;;;;;;5067584;28;20048;-81
2023/09/04 06:35:33;;;;;;;4.97;4.30;;;;;;;;;;5072822;28;20032;-83
2023/09/04 06:37:59;;;;;;;14.45;5.07;;;;;;;;;;5047726;28;20020;-83
2023/09/04 06:40:24;;;;;;;7.75;4.57;;;;;;;;;;5053511;28;20028;-83
2023/09/04 06:42:53;;;;;;;6.28;4.15;;;;;;;;;;5058878;28;20021;-85
2023/09/04 06:45:19;;;;;;;7.60;3.60;;;;;;;;;;5058318;28;20115;-83
2023/09/04 06:47:45;;;;;;;9.60;3.78;;;;;;;;;;5044689;28;20021;-83
2023/09/04 06:50:12;;;;;;;5.97;4.80;;;;;;;;;;5045903;28;20404;-83
2023/09/04 06:52:41;;;;;;;7.25;4.45;;;;;;;;;;5052944;28;20115;-83
2023/09/04 06:55:07;;;;;;;5.35;3.85;;;;;;;;;;5081504;28;20045;-83
2023/09/04 06:57:33;;;;;;;4.55;3.42;;;;;;;;;;5077983;28;20383;-80
2023/09/04 07:00:07;;;;;;;6.70;3.20;;;;;;;;;;5080945;28;20020;-79
2023/09/04 07:02:42;;;;;;;11.32;4.32;;;;;;;;;;5054857;28;20032;-80
2023/09/04 07:05:11;;;;;;;4.53;2.70;;;;;;;;;;5084511;28;20457;-81
2023/09/04 07:07:38;;;;;;;7.93;2.40;;;;;;;;;;5058939;28;20431;-79
2023/09/04 07:10:11;;;;;;;9.10;2.83;;;;;;;;;;5080496;28;20024;-80
2023/09/04 07:12:37;;;;;;;4.95;2.58;;;;;;;;;;5059596;28;20139;-80
2023/09/04 07:15:04;;;;;;;2.45;2.15;;;;;;;;;;5088544;28;20028;-84
2023/09/04 07:17:30;;;;;;;5.00;2.60;;;;;;;;;;5066856;28;20024;-79
2023/09/04 07:19:56;;;;;;;2.67;2.15;;;;;;;;;;5059466;28;20029;-76
2023/09/04 07:22:22;;;;;;;6.43;2.60;;;;;;;;;;5063152;28;20031;-78
2023/09/04 07:24:48;;;;;;;3.70;2.38;;;;;;;;;;5074620;28;20032;-76
2023/09/04 07:27:20;;;;;;;3.38;2.28;;;;;;;;;;5052677;28;20071;-78
2023/09/04 07:29:49;;;;;;;3.10;2.28;;;;;;;;;;5056778;28;20036;-76
2023/09/04 07:32:15;;;;;;;6.20;2.58;;;;;;;;;;5060206;28;20398;-78
2023/09/04 07:34:43;;;;;;;12.07;2.47;;;;;;;;;;5064249;28;20052;-77
2023/09/04 07:37:09;;;;;;;12.25;3.28;;;;;;;;;;5061883;28;20021;-78
2023/09/04 07:39:45;;;;;;;4.85;2.00;;;;;;;;;;5062873;28;20400;-76
2023/09/04 07:42:17;;;;;;;2.25;1.60;;;;;;;;;;5056001;28;20036;-79
2023/09/04 07:44:51;;;;;;;3.17;2.05;;;;;;;;;;5079057;28;20565;-77
2023/09/04 07:47:41;;;;;;;3.92;2.55;;;;;;;;;;5075416;28;20046;-80
2023/09/04 07:50:11;;;;;;;4.65;2.45;;;;;;;;;;5050122;28;20036;-79
2023/09/04 07:52:47;;;;;;;3.50;2.50;;;;;;;;;;5064556;28;20032;-79
2023/09/04 07:55:21;;;;;;;6.65;2.80;;;;;;;;;;5078716;28;20043;-79
2023/09/04 07:57:48;;;;;;;10.63;4.10;;;;;;;;;;5058488;28;20110;-80
2023/09/04 08:00:21;;;;;;;7.43;3.33;;;;;;;;;;5077453;28;20059;-80
2023/09/04 08:02:49;;;;;;;7.78;3.25;;;;;;;;;;5043574;28;20032;-78
2023/09/04 08:05:16;;;;;;;4.22;3.05;;;;;;;;;;5054382;28;20078;-77
2023/09/04 08:07:44;;;;;;;5.32;2.58;;;;;;;;;;5052783;28;20469;-79
2023/09/04 08:10:16;;;;;;;4.35;3.15;;;;;;;;;;5061863;28;20041;-80
2023/09/04 08:12:47;;;;;;;;;;;;;;;;;;5054965;28;20016;-77
2023/09/04 08:15:13;;;;;;;2.83;2.28;;;;;;;;;;5076083;28;19916;-78
2023/09/04 08:17:41;;;;;;;3.33;2.55;;;;;;;;;;5056143;28;20028;-78
2023/09/04 08:20:20;;;;;;;5.45;3.78;;;;;;;;;;5056774;28;20360;-77
2023/09/04 08:22:48;;;;;;;12.38;3.05;;;;;;;;;;5053168;28;20028;-76
2023/09/04 08:25:18;;;;;;;6.38;2.47;;;;;;;;;;5054399;28;20040;-76
2023/09/04 08:27:46;;;;;;;4.47;2.22;;;;;;;;;;5059152;28;20060;-77
2023/09/04 08:31:06;;;;;;;3.08;1.65;;;;;;;;;;5064041;28;20020;-79
2023/09/04 08:33:45;;;;;;;3.33;2.25;;;;;;;;;;5067009;28;20045;-77
2023/09/04 08:36:17;;;;;;;4.60;1.75;;;;;;;;;;5075852;28;20037;-77
2023/09/04 08:38:50;;;;;;;2.60;1.83;;;;;;;;;;5080001;28;20047;-77
2023/09/04 08:41:20;;;;;;;12.15;2.75;;;;;;;;;;5056608;28;20044;-76
2023/09/04 08:43:54;;;;;;;4.63;1.63;;;;;;;;;;5045535;28;20595;-78
2023/09/04 08:46:22;;;;;;;2.10;1.80;;;;;;;;;;5062248;28;20036;-76
2023/09/04 08:49:05;;;;;;;4.93;1.88;;;;;;;;;;5058036;28;20063;-76
2023/09/04 08:51:31;;;;;;;7.38;2.13;;;;;;;;;;5077643;28;20034;-77
2023/09/04 08:53:59;;;;;;;6.90;2.50;;;;;;;;;;5069621;28;20035;-77
2023/09/04 08:56:31;;;;;;;3.72;1.80;;;;;;;;;;5072955;28;20096;-75
2023/09/04 08:59:00;;;;;;;8.15;3.20;;;;;;;;;;5073828;28;20032;-76
2023/09/04 09:01:47;;;;;;;3.17;1.98;;;;;;;;;;5062644;28;20597;-77
2023/09/04 09:04:15;;;;;;;4.35;1.80;;;;;;;;;;5059836;28;20057;-76
2023/09/04 09:06:44;;;;;;;2.42;1.58;;;;;;;;;;5052418;28;20025;-77
2023/09/04 09:09:13;;;;;;;10.65;3.67;;;;;;;;;;5071003;28;20115;-78
2023/09/04 09:11:59;;;;;;;5.05;1.90;;;;;;;;;;5065591;28;20094;-78
2023/09/04 09:14:42;;;;;;;5.85;2.08;;;;;;;;;;5051385;28;20055;-75
2023/09/04 09:17:15;;;;;;;4.40;1.58;;;;;;;;;;5070512;28;20036;-77
2023/09/04 09:19:44;;;;;;;1.65;1.55;;;;;;;;;;5039848;28;20479;-76
2023/09/04 09:22:12;;;;;;;4.40;1.33;;;;;;;;;;5069415;28;20036;-78
2023/09/04 09:24:56;;;;;;;2.45;1.35;;;;;;;;;;5059984;28;20028;-78
2023/09/04 09:27:46;;;;;;;2.78;1.38;;;;;;;;;;5091740;28;20044;-77
2023/09/04 09:30:18;;;;;;;2.97;1.60;;;;;;;;;;5055313;28;20040;-77
2023/09/04 09:32:50;;;;;;;2.20;1.30;;;;;;;;;;5062115;28;20058;-77
2023/09/04 09:35:45;;;;;;;4.53;1.40;;;;;;;;;;5071137;28;20147;-76
2023/09/04 09:38:30;;;;;;;4.40;1.60;;;;;;;;;;5069954;28;20017;-76
2023/09/04 09:41:13;;;;;;;4.85;2.08;;;;;;;;;;5057726;28;20071;-78
2023/09/04 09:43:47;;;;;;;3.63;1.30;;;;;;;;;;5084994;28;20074;-78
2023/09/04 09:46:37;;;;;;;2.00;1.40;;;;;;;;;;5074351;28;20258;-77
2023/09/04 09:49:39;;;;;;;2.22;1.63;;;;;;;;;;5045381;28;20040;-76
2023/09/04 09:52:10;;;;;;;2.95;1.55;;;;;;;;;;5062544;28;20035;-78
2023/09/04 09:54:43;;;;;;;2.55;1.40;;;;;;;;;;5051238;28;20033;-77
2023/09/04 09:57:34;;;;;;;;;;;;;;;;;;5085818;28;20056;-76
2023/09/04 10:00:13;;;;;;;2.28;1.63;;;;;;;;;;5062806;28;19912;-77
2023/09/04 10:02:38;;;;;;;3.65;1.70;;;;;;;;;;5081655;28;20017;-77
2023/09/04 10:05:16;;;;;;;3.60;1.40;;;;;;;;;;5065668;28;20062;-78
2023/09/04 10:07:47;;;;;;;2.53;1.20;;;;;;;;;;5093648;28;20111;-77
2023/09/04 10:10:15;;;;;;;4.13;1.20;;;;;;;;;;5060233;28;20099;-78
2023/09/04 10:13:08;;;;;;;2.30;1.38;;;;;;;;;;5069701;28;20028;-76
2023/09/04 10:15:46;;;;;;;;;;;;;;;;;;;;;
2023/09/04 10:18:36;;;;;;;1.83;1.00;;;;;;;;;;5058728;28;20412;-77
2023/09/04 10:21:07;;;;;;;3.08;1.40;;;;;;;;;;5062414;28;20039;-76
2023/09/04 10:24:02;;;;;;;1.92;1.27;;;;;;;;;;5075379;28;20033;-79
2023/09/04 10:27:13;;;;;;;1.70;0.90;;;;;;;;;;5050555;28;20077;-77
2023/09/04 10:30:11;;;;;;;1.92;1.10;;;;;;;;;;5080744;28;20477;-78
2023/09/04 10:32:49;;;;;;;1.70;1.35;;;;;;;;;;5069361;28;20048;-78
2023/09/04 10:35:37;;;;;;;2.65;1.35;;;;;;;;;;5053645;28;20047;-79
2023/09/04 10:38:07;;;;;;;4.82;1.92;;;;;;;;;;5064606;28;20021;-78
2023/09/04 10:40:39;;;;;;;2.53;1.47;;;;;;;;;;5082823;28;20031;-78
2023/09/04 10:43:14;;;;;;;2.35;1.40;;;;;;;;;;5032619;28;20365;-78
2023/09/04 10:46:00;;;;;;;2.53;0.98;;;;;;;;;;5058404;28;20033;-78
2023/09/04 10:49:01;;;;;;;1.80;1.10;;;;;;;;;;5078697;28;20054;-77
2023/09/04 10:51:37;;;;;;;2.30;1.25;;;;;;;;;;5079232;28;20021;-76
2023/09/04 10:54:21;;;;;;;1.60;1.45;;;;;;;;;;5096906;22;21271;-76
2023/09/04 10:57:15;;;;;;;2.85;1.52;;;;;;;;;;5050841;28;20037;-77
2023/09/04 10:59:54;;;;;;;2.05;1.25;;;;;;;;;;5057541;28;20036;-77
2023/09/04 11:02:36;;;;;;;2.08;1.30;;;;;;;;;;5038979;28;20439;-77
2023/09/04 11:05:03;;;;;;;;;;;;;;;;;;5057139;28;20027;-77
2023/09/04 11:07:52;;;;;;;3.13;1.50;;;;;;;;;;5042799;28;19929;-77
2023/09/04 11:10:36;;;;;;;1.48;1.10;;;;;;;;;;5022737;28;20045;-77
2023/09/04 11:13:08;;;;;;;2.47;1.42;;;;;;;;;;5048602;28;20089;-78
2023/09/04 11:15:36;;;;;;;2.20;1.35;;;;;;;;;;5018181;28;20571;-76
2023/09/04 11:18:12;;;;;;;3.85;1.20;;;;;;;;;;5032356;28;20765;-77
2023/09/04 11:20:45;;;;;;;4.20;1.75;;;;;;;;;;5005058;28;20041;-75
2023/09/04 11:23:17;;;;;;;4.63;1.05;;;;;;;;;;5048352;28;20107;-77
2023/09/04 11:25:46;;;;;;;1.92;1.10;;;;;;;;;;5050125;28;20055;-78
2023/09/04 11:28:59;;;;;;;3.50;1.60;;;;;;;;;;5031880;28;20386;-77
2023/09/04 11:31:30;;;;;;;3.00;1.70;;;;;;;;;;5009810;28;20044;-78
2023/09/04 11:33:57;;;;;;;1.80;1.25;;;;;;;;;;5056907;28;20028;-77
2023/09/04 11:36:23;;;;;;;2.33;1.10;;;;;;;;;;5039830;28;20166;-76
2023/09/04 11:39:15;;;;;;;2.95;1.75;;;;;;;;;;5056959;28;20136;-76
2023/09/04 11:41:42;;;;;;;10.43;1.73;;;;;;;;;;5037987;28;20033;-79
2023/09/04 11:44:08;;;;;;;4.90;1.40;;;;;;;;;;5054468;28;20033;-76
2023/09/04 11:46:40;;;;;;;4.65;1.55;;;;;;;;;;5042079;28;20032;-77
2023/09/04 11:49:07;;;;;;;;;;;;;;;;;;5037108;28;20481;-76
2023/09/04 11:51:44;;;;;;;3.45;1.45;;;;;;;;;;5034173;28;19925;-79
2023/09/04 11:54:36;;;;;;;3.90;1.48;;;;;;;;;;5042930;28;20544;-78
2023/09/04 11:57:09;;;;;;;3.08;1.40;;;;;;;;;;5032910;28;20532;-78
2023/09/04 11:59:37;;;;;;;4.70;1.90;;;;;;;;;;5046060;28;20036;-78
2023/09/04 12:02:07;;;;;;;3.00;1.65;;;;;;;;;;5044151;28;20025;-78
2023/09/04 12:04:35;;;;;;;7.05;1.50;;;;;;;;;;5024235;28;20029;-77
2023/09/04 12:07:03;;;;;;;2.95;1.38;;;;;;;;;;5030030;28;20533;-78
2023/09/04 12:09:30;;;;;;;5.10;1.50;;;;;;;;;;5051737;28;20047;-77
2023/09/04 12:11:57;;;;;;;3.40;1.40;;;;;;;;;;5025964;28;20033;-75
2023/09/04 12:14:23;;;;;;;2.95;1.95;;;;;;;;;;5013705;28;20490;-77
2023/09/04 12:16:49;;;;;;;3.45;1.40;;;;;;;;;;5026070;28;20334;-76
2023/09/04 12:19:21;;;;;;;6.05;2.08;;;;;;;;;;5042303;28;20507;-76
2023/09/04 12:22:14;;;;;;;6.05;1.73;;;;;;;;;;5008784;28;20489;-79
2023/09/04 12:25:01;;;;;;;2.28;1.25;;;;;;;;;;4992644;28;20034;-78
2023/09/04 12:27:29;;;;;;;1.80;1.30;;;;;;;;;;5030119;28;20065;-77
2023/09/04 12:29:58;;;;;;;3.78;1.27;;;;;;;;;;5041662;28;20060;-78
2023/09/04 12:32:37;;;;;;;2.85;1.50;;;;;;;;;;5053920;28;20029;-80
2023/09/04 12:35:06;;;;;;;5.40;1.60;;;;;;;;;;5043207;28;20038;-77
2023/09/04 12:37:41;;;;;;;2.55;1.67;;;;;;;;;;5023052;28;20517;-77
2023/09/04 12:40:09;;;;;;;3.72;1.23;;;;;;;;;;5022922;28;20042;-77
2023/09/04 12:42:46;;;;;;;1.75;1.38;;;;;;;;;;5045491;28;20499;-75
2023/09/04 12:45:15;;;;;;;6.15;2.60;;;;;;;;;;5043473;28;20457;-78
2023/09/04 12:47:43;;;;;;;3.05;1.45;;;;;;;;;;5030682;28;20068;-78
2023/09/04 12:50:19;;;;;;;2.58;1.92;;;;;;;;;;5029995;28;20583;-75
2023/09/04 12:52:51;;;;;;;2.88;1.45;;;;;;;;;;5048809;28;20049;-77
2023/09/04 12:55:18;;;;;;;3.38;1.60;;;;;;;;;;5053237;28;20044;-76
2023/09/04 12:58:05;;;;;;;2.83;1.65;;;;;;;;;;5025655;28;20029;-79
2023/09/04 13:00:31;;;;;;;5.72;2.35;;;;;;;;;;5033472;28;20029;-75
2023/09/04 13:03:15;;;;;;;4.03;1.48;;;;;;;;;;5040638;28;20060;-78
2023/09/04 13:05:41;;;;;;;6.65;1.50;;;;;;;;;;5033214;28;20155;-75
2023/09/04 13:08:11;;;;;;;3.28;2.10;;;;;;;;;;5038061;28;20102;-77
2023/09/04 13:10:42;;;;;;;2.33;1.30;;;;;;;;;;5058952;28;20504;-77
2023/09/04 13:13:08;;;;;;;2.55;1.52;;;;;;;;;;5033878;28;20075;-75
2023/09/04 13:15:37;;;;;;;3.30;1.50;;;;;;;;;;5039890;28;20040;-76
2023/09/04 13:18:09;;;;;;;5.82;1.80;;;;;;;;;;5033391;28;20021;-77
2023/09/04 13:20:43;;;;;;;4.25;1.85;;;;;;;;;;5033548;28;20029;-77
2023/09/04 13:23:10;;;;;;;2.67;1.52;;;;;;;;;;5062366;28;20021;-76
2023/09/04 13:25:41;;;;;;;3.63;1.40;;;;;;;;;;5036151;28;20033;-79
2023/09/04 13:28:07;;;;;;;7.95;2.50;;;;;;;;;;5027499;28;20021;-78
2023/09/04 13:30:36;;;;;;;5.18;2.30;;;;;;;;;;5024151;28;20449;-78
2023/09/04 13:33:02;;;;;;;4.65;1.67;;;;;;;;;;5038423;28;20036;-80
2023/09/04 13:35:32;;;;;;;2.10;1.48;;;;;;;;;;5032449;28;20734;-79
2023/09/04 13:37:59;;;;;;;5.93;1.85;;;;;;;;;;5039744;28;20056;-80
2023/09/04 13:40:36;;;;;;;2.50;1.60;;;;;;;;;;5037150;28;20029;-82
2023/09/04 13:43:04;;;;;;;3.13;1.90;;;;;;;;;;5042820;28;20024;-76
2023/09/04 13:45:43;;;;;;;8.00;1.83;;;;;;;;;;5033085;28;20025;-76
2023/09/04 13:48:16;;;;;;;2.45;1.50;;;;;;;;;;5035735;28;20037;-79
2023/09/04 13:50:42;;;;;;;2.55;1.80;;;;;;;;;;5054275;28;20025;-74
2023/09/04 13:53:17;;;;;;;3.08;1.80;;;;;;;;;;5051830;28;20028;-78
2023/09/04 13:55:43;;;;;;;4.72;1.77;;;;;;;;;;5044232;28;20445;-77
2023/09/04 13:58:30;;;;;;;3.33;1.33;;;;;;;;;;5046270;28;20477;-78
2023/09/04 14:00:56;;;;;;;6.75;1.70;;;;;;;;;;5034355;28;20040;-78
2023/09/04 14:03:27;;;;;;;4.43;1.42;;;;;;;;;;5049247;28;20060;-76
2023/09/04 14:05:56;;;;;;;;;;;;;;;;;;5032958;28;20351;-78
2023/09/04 14:08:23;;;;;;;3.65;1.67;;;;;;;;;;5023783;28;19939;-78
2023/09/04 14:10:51;;;;;;;5.63;1.60;;;;;;;;;;5050773;28;20108;-77
2023/09/04 14:13:18;;;;;;;3.72;1.38;;;;;;;;;;5031643;28;20397;-77
2023/09/04 14:15:44;;;;;;;2.45;1.38;;;;;;;;;;5048487;28;20025;-76
2023/09/04 14:18:32;;;;;;;3.50;1.42;;;;;;;;;;5028914;28;20381;-76
2023/09/04 14:21:04;;;;;;;2.58;1.60;;;;;;;;;;5036270;28;20029;-78
2023/09/04 14:23:35;;;;;;;3.88;1.75;;;;;;;;;;5047235;28;20029;-79
2023/09/04 14:26:21;;;;;;;6.97;1.50;;;;;;;;;;5050441;28;20372;-76
2023/09/04 14:28:47;;;;;;;3.95;1.52;;;;;;;;;;5052491;28;20055;-78
2023/09/04 14:31:14;;;;;;;2.30;1.20;;;;;;;;;;5050126;28;20128;-77
2023/09/04 14:33:40;;;;;;;2.15;1.27;;;;;;;;;;5035786;28;20033;-76
2023/09/04 14:36:15;;;;;;;2.55;1.40;;;;;;;;;;5037386;28;20107;-80
2023/09/04 14:38:48;;;;;;;2.03;1.20;;;;;;;;;;5036612;28;20396;-78
2023/09/04 14:41:22;;;;;;;4.00;1.25;;;;;;;;;;5056433;28;20104;-76
2023/09/04 14:43:49;;;;;;;3.85;1.63;;;;;;;;;;5037976;28;20084;-77
2023/09/04 14:46:21;;;;;;;2.78;1.75;;;;;;;;;;5057966;28;20473;-79
2023/09/04 14:48:54;;;;;;;5.07;1.27;;;;;;;;;;5037771;28;20057;-78
2023/09/04 14:51:20;;;;;;;1.58;1.20;;;;;;;;;;5019806;28;20491;-79
2023/09/04 14:53:55;;;;;;;2.83;1.23;;;;;;;;;;5035703;28;20485;-79
2023/09/04 14:56:25;;;;;;;2.53;1.40;;;;;;;;;;5032837;28;20083;-77
2023/09/04 14:58:54;;;;;;;2.10;1.33;;;;;;;;;;5035500;28;20048;-78
2023/09/04 15:01:39;;;;;;;2.92;1.00;;;;;;;;;;5034585;28;20478;-79
2023/09/04 15:04:06;;;;;;;2.63;1.00;;;;;;;;;;5034366;28;20590;-80
2023/09/04 15:06:32;;;;;;;2.25;1.42;;;;;;;;;;5034741;28;20076;-79